Time;durP1;ratioP1;P1;durP2;ratioP2;P2;SDS_P1;SDS_P2;PMS_P1;PMS_P2;Temp;Humidity;BMP_temperature;BMP_pressure;BME280_temperature;BME280_humidity;BME280_pressure;Samples;Min_cycle;Max_cycle;Signal;HPM_P1;HPM_P2
2022/02/15 00:00:38;;;;;;;1.60;1.20;;;6.90;98.20;;;;;;5047161;28;20981;-72
2022/02/15 00:03:06;;;;;;;1.60;1.30;;;6.90;98.20;;;;;;5045457;28;20619;-72
2022/02/15 00:05:33;;;;;;;1.60;1.30;;;6.90;98.20;;;;;;5047214;28;20653;-72
2022/02/15 00:08:01;;;;;;;1.60;1.30;;;6.90;98.20;;;;;;5045792;28;20848;-72
2022/02/15 00:10:27;;;;;;;1.60;1.40;;;7.00;98.20;;;;;;5045138;28;20461;-72
2022/02/15 00:12:54;;;;;;;1.60;1.20;;;7.00;98.20;;;;;;5045650;28;20490;-72
2022/02/15 00:15:22;;;;;;;1.60;1.43;;;7.00;98.20;;;;;;5045972;28;20507;-72
2022/02/15 00:17:49;;;;;;;1.60;1.30;;;7.00;98.20;;;;;;5047370;28;21130;-72
2022/02/15 00:20:16;;;;;;;1.60;1.37;;;7.00;98.20;;;;;;5046650;28;20470;-72
2022/02/15 00:22:42;;;;;;;1.60;1.20;;;7.00;98.20;;;;;;5046817;28;20474;-72
2022/02/15 00:25:10;;;;;;;1.60;1.40;;;7.00;98.20;;;;;;5047034;28;20470;-72
2022/02/15 00:27:37;;;;;;;1.60;1.40;;;7.10;98.20;;;;;;5044158;28;20564;-72
2022/02/15 00:30:05;;;;;;;1.60;1.30;;;7.10;98.20;;;;;;5045502;28;20501;-72
2022/02/15 00:32:33;;;;;;;1.60;1.40;;;7.10;98.20;;;;;;5045993;28;20490;-72
2022/02/15 00:35:00;;;;;;;1.60;1.30;;;7.10;98.20;;;;;;5045154;28;20466;-72
2022/02/15 00:37:27;;;;;;;1.60;1.40;;;7.10;98.20;;;;;;5047764;28;20465;-72
2022/02/15 00:39:53;;;;;;;1.60;1.20;;;7.10;98.20;;;;;;5045850;28;20467;-72
2022/02/15 00:42:20;;;;;;;1.60;1.30;;;7.10;98.20;;;;;;5046338;28;21009;-72
2022/02/15 00:44:47;;;;;;;1.60;1.30;;;7.10;98.20;;;;;;5045825;28;20464;-72
2022/02/15 00:47:15;;;;;;;1.60;1.30;;;7.10;98.20;;;;;;5051279;28;20493;-72
2022/02/15 00:49:43;;;;;;;1.57;1.30;;;7.10;98.20;;;;;;5049520;28;20912;-72
2022/02/15 00:52:10;;;;;;;1.60;1.27;;;7.10;98.20;;;;;;5050752;28;20481;-72
2022/02/15 00:54:37;;;;;;;1.60;1.40;;;7.10;98.20;;;;;;5049098;28;20494;-72
2022/02/15 00:57:05;;;;;;;1.60;1.30;;;7.10;98.20;;;;;;5054485;28;20527;-72
2022/02/15 00:59:31;;;;;;;1.60;1.30;;;7.20;98.20;;;;;;5050265;28;20844;-72
2022/02/15 01:01:58;;;;;;;1.60;1.30;;;7.20;98.20;;;;;;5048437;28;20505;-72
2022/02/15 01:04:25;;;;;;;1.60;1.30;;;7.20;98.20;;;;;;5049831;28;20462;-72
2022/02/15 01:06:53;;;;;;;1.60;1.30;;;7.20;98.20;;;;;;5051489;28;20930;-72
2022/02/15 01:09:19;;;;;;;1.60;1.20;;;7.10;98.20;;;;;;5049420;28;20469;-72
2022/02/15 01:11:46;;;;;;;1.60;1.30;;;7.10;98.20;;;;;;5048282;28;20482;-72
2022/02/15 01:14:14;;;;;;;1.60;1.30;;;7.10;98.20;;;;;;5042227;28;20486;-72
2022/02/15 01:16:41;;;;;;;1.60;1.30;;;7.20;98.20;;;;;;5048942;28;20814;-72
2022/02/15 01:19:08;;;;;;;1.53;1.30;;;7.20;98.20;;;;;;5051232;28;20524;-72
2022/02/15 01:21:35;;;;;;;1.60;1.40;;;7.20;98.20;;;;;;5049887;28;20831;-72
2022/02/15 01:24:03;;;;;;;1.60;1.40;;;7.20;98.20;;;;;;5050342;28;20462;-72
2022/02/15 01:26:30;;;;;;;1.60;1.30;;;7.20;98.20;;;;;;5050558;28;20468;-72
2022/02/15 01:28:57;;;;;;;1.60;1.30;;;7.30;98.20;;;;;;5049195;28;20458;-72
2022/02/15 01:31:24;;;;;;;1.60;1.33;;;7.30;98.20;;;;;;5049301;28;20482;-72
2022/02/15 01:33:51;;;;;;;1.60;1.30;;;7.30;98.20;;;;;;5049491;28;20478;-72
2022/02/15 01:36:18;;;;;;;1.60;1.30;;;7.30;98.20;;;;;;5050646;28;20462;-72
2022/02/15 01:38:45;;;;;;;1.60;1.30;;;7.30;98.20;;;;;;5046327;28;20462;-72
2022/02/15 01:41:13;;;;;;;1.60;1.30;;;7.40;98.20;;;;;;5049366;28;20486;-72
2022/02/15 01:43:40;;;;;;;1.60;1.40;;;7.40;98.20;;;;;;5048912;28;20454;-72
2022/02/15 01:46:08;;;;;;;1.57;1.30;;;7.40;98.20;;;;;;5050200;28;20457;-72
2022/02/15 01:48:35;;;;;;;2.27;2.07;;;7.40;98.20;;;;;;5049853;28;20489;-72
2022/02/15 01:51:02;;;;;;;1.60;1.30;;;7.40;98.20;;;;;;5049455;28;20466;-72
2022/02/15 01:53:29;;;;;;;1.60;1.40;;;7.40;98.20;;;;;;5046840;28;20479;-72
2022/02/15 01:55:56;;;;;;;1.60;1.20;;;7.50;98.20;;;;;;5049016;28;20458;-72
2022/02/15 01:58:24;;;;;;;1.60;1.30;;;7.50;98.20;;;;;;5055914;28;20481;-72
2022/02/15 02:00:51;;;;;;;1.53;1.20;;;7.50;98.20;;;;;;5046532;28;20462;-72
2022/02/15 02:03:17;;;;;;;1.57;1.23;;;7.50;98.20;;;;;;5048130;28;20966;-72
2022/02/15 02:05:49;;;;;;;1.60;1.30;;;7.50;98.20;;;;;;5043617;28;20466;-72
2022/02/15 02:08:17;;;;;;;1.60;1.20;;;7.50;98.20;;;;;;5043168;28;20946;-72
2022/02/15 02:10:44;;;;;;;1.60;1.20;;;7.50;98.20;;;;;;5049109;28;20524;-72
2022/02/15 02:13:10;;;;;;;1.60;1.20;;;7.50;98.20;;;;;;5044718;28;20950;-72
2022/02/15 02:15:39;;;;;;;1.60;1.30;;;7.50;98.20;;;;;;5050194;28;20463;-72
2022/02/15 02:18:07;;;;;;;1.60;1.30;;;7.50;98.20;;;;;;5047287;28;20463;-72
2022/02/15 02:20:34;;;;;;;1.60;1.20;;;7.50;98.20;;;;;;5039669;28;21005;-72
2022/02/15 02:23:03;;;;;;;1.60;1.30;;;7.40;98.20;;;;;;5047883;28;20475;-72
2022/02/15 02:25:29;;;;;;;1.60;1.30;;;7.40;98.20;;;;;;5048852;28;20481;-72
2022/02/15 02:27:58;;;;;;;1.60;1.20;;;7.40;98.20;;;;;;5046099;28;20462;-72
2022/02/15 02:30:25;;;;;;;1.60;1.27;;;7.40;98.20;;;;;;5049923;28;20458;-72
2022/02/15 02:32:52;;;;;;;1.53;1.20;;;7.40;98.20;;;;;;5045927;28;20478;-72
2022/02/15 02:35:20;;;;;;;1.60;1.20;;;7.40;98.20;;;;;;5048273;28;20481;-72
2022/02/15 02:37:47;;;;;;;1.60;1.30;;;7.30;98.20;;;;;;5048221;28;20621;-72
2022/02/15 02:40:16;;;;;;;1.60;1.20;;;7.30;98.20;;;;;;5048763;28;20469;-72
2022/02/15 02:42:44;;;;;;;1.60;1.30;;;7.30;98.20;;;;;;5049410;28;20514;-72
2022/02/15 02:45:14;;;;;;;1.57;1.20;;;7.20;98.20;;;;;;5048428;28;20462;-72
2022/02/15 02:47:43;;;;;;;1.60;1.40;;;7.20;98.20;;;;;;5046112;28;20462;-72
2022/02/15 02:50:10;;;;;;;1.60;1.30;;;7.20;98.20;;;;;;5037898;28;20490;-72
2022/02/15 02:52:37;;;;;;;1.60;1.30;;;7.20;98.20;;;;;;5036334;28;20482;-72
2022/02/15 02:55:04;;;;;;;1.60;1.30;;;7.20;98.20;;;;;;5047591;28;20482;-72
2022/02/15 02:57:33;;;;;;;1.60;1.30;;;7.20;98.20;;;;;;5047107;28;20462;-72
2022/02/15 03:00:00;;;;;;;1.53;1.20;;;7.20;98.20;;;;;;5033034;28;21008;-72
2022/02/15 03:02:27;;;;;;;1.60;1.40;;;7.20;98.20;;;;;;5039059;28;20474;-72
2022/02/15 03:04:53;;;;;;;1.60;1.30;;;7.20;98.20;;;;;;5047080;28;20442;-72
2022/02/15 03:07:20;;;;;;;1.60;1.30;;;7.20;98.20;;;;;;5046261;28;20461;-72
2022/02/15 03:09:47;;;;;;;1.60;1.30;;;7.30;98.20;;;;;;5047780;28;20947;-72
2022/02/15 03:12:15;;;;;;;1.60;1.30;;;7.30;98.20;;;;;;5047956;28;20478;-72
2022/02/15 03:14:43;;;;;;;1.60;1.20;;;7.30;98.20;;;;;;5046719;28;20512;-72
2022/02/15 03:17:11;;;;;;;1.60;1.30;;;7.30;98.20;;;;;;5048504;28;20838;-72
2022/02/15 03:19:38;;;;;;;1.67;1.57;;;7.30;98.20;;;;;;5046898;28;21297;-72
2022/02/15 03:22:05;;;;;;;1.60;1.30;;;7.30;98.20;;;;;;5045645;28;20486;-72
2022/02/15 03:24:33;;;;;;;1.60;1.30;;;7.30;98.20;;;;;;5047701;28;20462;-72
2022/02/15 03:27:00;;;;;;;1.60;1.20;;;7.30;98.20;;;;;;5049174;28;20520;-72
2022/02/15 03:29:27;;;;;;;1.60;1.30;;;7.30;98.20;;;;;;5045626;28;21112;-72
2022/02/15 03:31:55;;;;;;;1.60;1.40;;;7.30;98.20;;;;;;5049023;28;20853;-72
2022/02/15 03:34:21;;;;;;;1.60;1.23;;;7.30;98.20;;;;;;5046956;28;20556;-72
2022/02/15 03:36:48;;;;;;;1.60;1.30;;;7.30;98.20;;;;;;5047892;28;20466;-72
2022/02/15 03:39:15;;;;;;;1.60;1.30;;;7.30;98.20;;;;;;5047978;28;20469;-73
2022/02/15 03:44:26;;;;;;;1.60;1.30;;;7.30;98.20;;;;;;5046087;28;20442;-72
2022/02/15 03:46:54;;;;;;;1.60;1.20;;;7.20;98.20;;;;;;5047738;28;20477;-72
2022/02/15 03:49:21;;;;;;;1.57;1.30;;;7.20;98.20;;;;;;5045797;28;20977;-73
2022/02/15 03:51:48;;;;;;;1.60;1.30;;;7.20;98.20;;;;;;5044509;28;20474;-72
2022/02/15 03:54:15;;;;;;;1.60;1.30;;;7.20;98.20;;;;;;5047281;28;20861;-72
2022/02/15 03:56:42;;;;;;;1.60;1.30;;;7.10;98.20;;;;;;5050458;28;20470;-72
2022/02/15 03:59:09;;;;;;;1.60;1.27;;;7.10;98.20;;;;;;5048141;28;20454;-72
2022/02/15 04:01:36;;;;;;;1.53;1.27;;;7.10;98.20;;;;;;5044838;28;20482;-72
2022/02/15 04:04:05;;;;;;;1.60;1.30;;;7.00;98.20;;;;;;5047053;28;20465;-72
2022/02/15 04:06:32;;;;;;;1.70;1.60;;;7.00;98.20;;;;;;5041772;28;20485;-72
2022/02/15 04:08:59;;;;;;;1.57;1.20;;;7.00;98.20;;;;;;5047169;28;20469;-72
2022/02/15 04:11:26;;;;;;;1.60;1.30;;;7.00;98.20;;;;;;5041882;28;21049;-72
2022/02/15 04:13:53;;;;;;;1.60;1.20;;;7.00;98.20;;;;;;5047025;28;20493;-72
2022/02/15 04:16:19;;;;;;;1.60;1.37;;;6.90;98.20;;;;;;5046261;28;20491;-72
2022/02/15 04:18:47;;;;;;;1.60;1.30;;;6.90;98.20;;;;;;5045017;28;20466;-72
2022/02/15 04:21:20;;;;;;;1.60;1.30;;;6.80;98.20;;;;;;5046151;28;20846;-72
2022/02/15 04:23:48;;;;;;;1.60;1.30;;;6.80;98.20;;;;;;5042907;28;20454;-72
2022/02/15 04:26:15;;;;;;;1.57;1.30;;;6.70;98.20;;;;;;5046013;28;20581;-72
2022/02/15 04:28:43;;;;;;;1.60;1.40;;;6.70;98.20;;;;;;5044667;28;20453;-72
2022/02/15 04:31:10;;;;;;;1.60;1.30;;;6.60;98.20;;;;;;5042745;28;20478;-72
2022/02/15 04:33:37;;;;;;;1.60;1.30;;;6.60;98.20;;;;;;5046810;28;20465;-72
2022/02/15 04:36:04;;;;;;;1.60;1.30;;;6.50;98.20;;;;;;5044380;28;20458;-72
2022/02/15 04:38:33;;;;;;;1.60;1.30;;;6.50;98.20;;;;;;5046169;28;20462;-72
2022/02/15 04:40:59;;;;;;;1.60;1.40;;;6.50;98.20;;;;;;5044269;28;20463;-72
2022/02/15 04:43:26;;;;;;;1.60;1.30;;;6.50;98.20;;;;;;5043474;28;20485;-72
2022/02/15 04:45:53;;;;;;;1.60;1.30;;;6.50;98.20;;;;;;5046848;28;20469;-72
2022/02/15 04:48:20;;;;;;;1.60;1.30;;;6.50;98.20;;;;;;5045705;28;20470;-72
2022/02/15 04:50:47;;;;;;;1.60;1.30;;;6.50;98.20;;;;;;5045937;28;20841;-72
2022/02/15 04:53:14;;;;;;;1.57;1.30;;;6.50;98.20;;;;;;5046926;28;20477;-72
2022/02/15 04:55:42;;;;;;;1.60;1.30;;;6.50;98.20;;;;;;5042998;28;20502;-72
2022/02/15 04:58:09;;;;;;;1.60;1.30;;;6.50;98.20;;;;;;5046242;28;20481;-72
2022/02/15 05:00:36;;;;;;;1.60;1.30;;;6.50;98.20;;;;;;5041915;28;20592;-72
2022/02/15 05:03:03;;;;;;;1.60;1.30;;;6.60;98.20;;;;;;5047109;28;20482;-72
2022/02/15 05:05:30;;;;;;;1.60;1.37;;;6.60;98.20;;;;;;5043658;28;20458;-72
2022/02/15 05:07:57;;;;;;;1.60;1.30;;;6.60;98.20;;;;;;5046914;28;20490;-72
2022/02/15 05:10:24;;;;;;;1.53;1.30;;;6.60;98.20;;;;;;5045112;28;20963;-71
2022/02/15 05:12:52;;;;;;;1.57;1.20;;;6.60;98.20;;;;;;5044001;28;20489;-72
2022/02/15 05:15:18;;;;;;;1.60;1.30;;;6.60;98.20;;;;;;5044316;28;20486;-72
2022/02/15 05:17:46;;;;;;;1.60;1.30;;;6.60;98.20;;;;;;5045776;28;20463;-72
2022/02/15 05:20:16;;;;;;;1.60;1.40;;;6.60;98.20;;;;;;5045570;28;20473;-72
2022/02/15 05:22:43;;;;;;;1.60;1.30;;;6.70;98.20;;;;;;5046177;28;20482;-72
2022/02/15 05:25:11;;;;;;;1.60;1.30;;;6.70;98.20;;;;;;5039083;28;20455;-72
2022/02/15 05:27:38;;;;;;;1.60;1.40;;;6.70;98.20;;;;;;5048596;28;20478;-72
2022/02/15 05:30:07;;;;;;;1.60;1.30;;;6.70;98.20;;;;;;5045729;28;20465;-72
2022/02/15 05:32:34;;;;;;;1.60;1.33;;;6.70;98.20;;;;;;5051297;28;20482;-72
2022/02/15 05:35:02;;;;;;;1.60;1.30;;;6.70;98.20;;;;;;5049263;28;20505;-72
2022/02/15 05:37:28;;;;;;;1.60;1.50;;;6.70;98.20;;;;;;5050935;28;20469;-72
2022/02/15 05:39:55;;;;;;;1.57;1.30;;;6.70;98.20;;;;;;5048784;28;20477;-72
2022/02/15 05:42:22;;;;;;;1.60;1.30;;;6.70;98.20;;;;;;5049837;28;20491;-72
2022/02/15 05:44:49;;;;;;;1.60;1.40;;;6.70;98.20;;;;;;5044099;28;20463;-72
2022/02/15 05:47:17;;;;;;;1.60;1.30;;;6.70;98.20;;;;;;5046131;28;20950;-72
2022/02/15 05:52:24;;;;;;;1.53;1.30;;;6.70;98.20;;;;;;5047771;28;20501;-72
2022/02/15 05:54:51;;;;;;;1.60;1.30;;;6.60;98.20;;;;;;5047848;28;20489;-72
2022/02/15 05:57:18;;;;;;;1.60;1.23;;;6.60;98.20;;;;;;5051027;28;20465;-72
2022/02/15 05:59:44;;;;;;;1.60;1.30;;;6.60;98.20;;;;;;5048859;28;20473;-72
2022/02/15 06:02:11;;;;;;;1.60;1.30;;;6.60;98.20;;;;;;5049688;28;20494;-73
2022/02/15 06:04:39;;;;;;;1.60;1.40;;;6.60;98.20;;;;;;5048054;28;20856;-73
2022/02/15 06:07:06;;;;;;;1.60;1.30;;;6.60;98.20;;;;;;5049194;28;20466;-73
2022/02/15 06:09:33;;;;;;;1.60;1.30;;;6.60;98.20;;;;;;5049193;28;20470;-72
2022/02/15 06:12:00;;;;;;;1.60;1.27;;;6.60;98.20;;;;;;5048484;28;20846;-74
2022/02/15 06:14:27;;;;;;;1.60;1.37;;;6.60;98.20;;;;;;5048631;28;20958;-72
2022/02/15 06:16:54;;;;;;;1.60;1.30;;;6.60;98.20;;;;;;5048103;28;20465;-73
2022/02/15 06:19:21;;;;;;;1.60;1.30;;;6.60;98.20;;;;;;5047486;28;20481;-72
2022/02/15 06:21:49;;;;;;;1.60;1.30;;;6.60;98.20;;;;;;5047742;28;21173;-72
2022/02/15 06:24:17;;;;;;;1.60;1.20;;;6.60;98.20;;;;;;5042881;28;20470;-71
2022/02/15 06:26:44;;;;;;;1.60;1.30;;;6.60;98.20;;;;;;5044423;28;20855;-71
2022/02/15 06:29:11;;;;;;;1.60;1.43;;;6.60;98.20;;;;;;5047240;28;20466;-71
2022/02/15 06:31:38;;;;;;;1.60;1.40;;;6.60;98.20;;;;;;5043439;28;20474;-71
2022/02/15 06:34:06;;;;;;;1.60;1.30;;;6.60;98.20;;;;;;5045691;28;20477;-72
2022/02/15 06:36:32;;;;;;;1.60;1.30;;;6.60;98.20;;;;;;5044447;28;20462;-71
2022/02/15 06:39:01;;;;;;;1.60;1.30;;;6.60;98.20;;;;;;5048988;28;20974;-72
2022/02/15 06:41:27;;;;;;;1.60;1.50;;;6.60;98.20;;;;;;5044716;28;20487;-71
2022/02/15 06:43:54;;;;;;;1.60;1.30;;;6.60;98.20;;;;;;5048756;28;20469;-72
2022/02/15 06:46:21;;;;;;;1.60;1.40;;;6.60;98.20;;;;;;5044129;28;20466;-72
2022/02/15 06:48:48;;;;;;;1.60;1.40;;;6.60;98.20;;;;;;5046909;28;20469;-71
2022/02/15 06:51:15;;;;;;;1.60;1.40;;;6.60;98.20;;;;;;5046667;28;20513;-71
2022/02/15 06:53:41;;;;;;;1.60;1.30;;;6.60;98.20;;;;;;5048145;28;20484;-72
2022/02/15 06:56:12;;;;;;;1.60;1.30;;;6.60;98.20;;;;;;5041587;28;20887;-71
2022/02/15 06:58:39;;;;;;;1.60;1.40;;;6.60;98.20;;;;;;5047938;28;20462;-71
2022/02/15 07:01:08;;;;;;;1.60;1.30;;;6.60;98.20;;;;;;5044843;28;20470;-71
2022/02/15 07:03:35;;;;;;;1.60;1.30;;;6.60;98.20;;;;;;5046795;28;20520;-72
2022/02/15 07:06:02;;;;;;;1.70;1.60;;;6.60;98.20;;;;;;5045708;28;20465;-71
2022/02/15 07:08:29;;;;;;;1.60;1.23;;;6.70;98.20;;;;;;5046568;28;20470;-71
2022/02/15 07:10:57;;;;;;;1.60;1.43;;;6.70;98.20;;;;;;5045954;28;20492;-71
2022/02/15 07:13:25;;;;;;;1.60;1.47;;;6.70;98.20;;;;;;5047649;28;20944;-72
2022/02/15 07:15:52;;;;;;;1.60;1.23;;;6.70;98.20;;;;;;5046407;28;20958;-71
2022/02/15 07:18:20;;;;;;;1.60;1.30;;;6.70;98.20;;;;;;5048385;28;20511;-72
2022/02/15 07:20:46;;;;;;;1.60;1.30;;;6.70;98.20;;;;;;5046523;28;20469;-71
2022/02/15 07:23:14;;;;;;;1.60;1.30;;;6.80;98.20;;;;;;5047372;28;20865;-71
2022/02/15 07:25:40;;;;;;;1.57;1.30;;;6.80;98.20;;;;;;5045543;28;20532;-71
2022/02/15 07:28:10;;;;;;;1.60;1.40;;;6.80;98.20;;;;;;5045039;28;20477;-71
2022/02/15 07:30:38;;;;;;;1.60;1.40;;;6.80;98.20;;;;;;5027875;28;20470;-71
2022/02/15 07:33:05;;;;;;;1.60;1.30;;;6.80;98.20;;;;;;5042713;28;20489;-71
2022/02/15 07:35:32;;;;;;;1.57;1.20;;;6.90;98.20;;;;;;5035277;28;20497;-71
2022/02/15 07:37:58;;;;;;;1.60;1.30;;;6.90;98.20;;;;;;5037682;28;20512;-71
2022/02/15 07:40:25;;;;;;;1.60;1.30;;;6.90;98.20;;;;;;5035921;28;20466;-72
2022/02/15 07:42:53;;;;;;;1.60;1.27;;;6.90;98.20;;;;;;5036717;28;20493;-72
2022/02/15 07:45:32;;;;;;;1.60;1.40;;;6.90;98.20;;;;;;5035840;28;20968;-71
2022/02/15 07:48:01;;;;;;;1.60;1.30;;;7.00;98.20;;;;;;5040963;28;20775;-72
2022/02/15 07:50:28;;;;;;;1.60;1.40;;;7.00;98.20;;;;;;5040732;28;20466;-71
2022/02/15 07:52:56;;;;;;;1.60;1.30;;;7.00;98.20;;;;;;5035176;28;20482;-70
2022/02/15 07:55:23;;;;;;;1.60;1.33;;;7.00;98.20;;;;;;5036601;28;20539;-70
2022/02/15 07:57:50;;;;;;;1.60;1.20;;;7.10;98.20;;;;;;5041740;28;20473;-70
2022/02/15 08:00:21;;;;;;;1.60;1.30;;;7.10;98.20;;;;;;5039465;28;21018;-70
2022/02/15 08:02:48;;;;;;;1.60;1.40;;;7.10;98.20;;;;;;5039972;28;20570;-70
2022/02/15 08:05:17;;;;;;;1.60;1.40;;;7.10;98.20;;;;;;5039056;28;20536;-70
2022/02/15 08:07:46;;;;;;;1.60;1.30;;;7.20;98.20;;;;;;5036474;28;20470;-70
2022/02/15 08:10:13;;;;;;;1.60;1.37;;;7.20;98.20;;;;;;5035580;28;20466;-70
2022/02/15 08:12:41;;;;;;;1.60;1.20;;;7.20;98.20;;;;;;5038668;28;20512;-71
2022/02/15 08:15:09;;;;;;;1.60;1.20;;;7.20;98.20;;;;;;5029871;28;20573;-70
2022/02/15 08:17:36;;;;;;;1.57;1.20;;;7.30;98.20;;;;;;5038803;28;20553;-71
2022/02/15 08:20:02;;;;;;;1.60;1.20;;;7.30;98.20;;;;;;5034149;28;21037;-70
2022/02/15 08:22:31;;;;;;;1.60;1.30;;;7.30;98.20;;;;;;5036276;28;20788;-70
2022/02/15 08:24:57;;;;;;;1.60;1.17;;;7.30;98.20;;;;;;5039290;28;20466;-71
2022/02/15 08:27:25;;;;;;;1.60;1.23;;;7.30;98.20;;;;;;5038023;28;20486;-71
2022/02/15 08:29:52;;;;;;;1.60;1.20;;;7.40;98.20;;;;;;5032135;28;20478;-70
2022/02/15 08:32:18;;;;;;;1.60;1.33;;;7.40;98.20;;;;;;5035573;28;20509;-71
2022/02/15 08:34:46;;;;;;;1.60;1.30;;;7.50;98.20;;;;;;5037887;28;20470;-71
2022/02/15 08:37:13;;;;;;;1.60;1.20;;;7.50;98.20;;;;;;5036420;28;20463;-70
2022/02/15 08:39:41;;;;;;;1.60;1.30;;;7.60;98.20;;;;;;5045417;28;20466;-71
2022/02/15 08:42:08;;;;;;;1.60;1.30;;;7.60;98.20;;;;;;5040858;28;20488;-71
2022/02/15 08:44:36;;;;;;;1.60;1.40;;;7.60;98.20;;;;;;5039010;28;20469;-71
2022/02/15 08:47:05;;;;;;;1.60;1.27;;;7.60;98.20;;;;;;5040777;28;20795;-70
2022/02/15 08:49:32;;;;;;;2.23;2.03;;;7.60;98.20;;;;;;5041858;28;20980;-70
2022/02/15 08:51:59;;;;;;;1.60;1.20;;;7.60;98.20;;;;;;5041243;28;20494;-71
2022/02/15 08:54:26;;;;;;;1.60;1.20;;;7.70;98.20;;;;;;5039286;28;20489;-71
2022/02/15 08:56:54;;;;;;;1.60;1.30;;;7.70;98.20;;;;;;5042080;28;20486;-71
2022/02/15 08:59:21;;;;;;;1.60;1.20;;;7.70;98.20;;;;;;5040861;28;20929;-71
2022/02/15 09:01:48;;;;;;;1.60;1.20;;;7.80;98.20;;;;;;5042345;28;20524;-71
2022/02/15 09:04:15;;;;;;;1.60;1.20;;;7.90;98.20;;;;;;5040272;28;20468;-71
2022/02/15 09:06:43;;;;;;;1.60;1.50;;;7.90;98.20;;;;;;5043311;28;20486;-70
2022/02/15 09:09:12;;;;;;;1.60;1.20;;;8.00;98.20;;;;;;5042328;28;20501;-71
2022/02/15 09:11:39;;;;;;;1.60;1.30;;;8.10;98.20;;;;;;5042944;28;20670;-71
2022/02/15 09:14:08;;;;;;;2.90;2.70;;;8.20;98.20;;;;;;5042689;28;20549;-71
2022/02/15 09:16:35;;;;;;;1.60;1.20;;;8.20;98.20;;;;;;5042000;28;20490;-71
2022/02/15 09:19:01;;;;;;;1.60;1.20;;;8.20;98.20;;;;;;5041818;28;20559;-71
2022/02/15 09:21:28;;;;;;;1.60;1.20;;;8.20;98.20;;;;;;5043832;28;20485;-71
2022/02/15 09:23:55;;;;;;;1.60;1.20;;;8.20;98.20;;;;;;5040564;28;20466;-71
2022/02/15 09:26:22;;;;;;;1.60;1.20;;;8.20;98.20;;;;;;5043945;28;20473;-71
2022/02/15 09:28:49;;;;;;;1.60;1.30;;;8.10;98.20;;;;;;5043309;28;21165;-71
2022/02/15 09:31:17;;;;;;;1.60;1.20;;;8.10;98.20;;;;;;5044394;28;20572;-71
2022/02/15 09:33:46;;;;;;;1.60;1.30;;;8.10;98.20;;;;;;5039920;28;20467;-71
2022/02/15 09:36:13;;;;;;;1.60;1.20;;;8.10;98.20;;;;;;5039930;28;20590;-71
2022/02/15 09:38:40;;;;;;;1.60;1.30;;;8.10;98.20;;;;;;5043957;28;20466;-71
2022/02/15 09:41:07;;;;;;;1.57;1.20;;;8.10;98.20;;;;;;5041714;28;20466;-72
2022/02/15 09:43:36;;;;;;;1.60;1.20;;;8.10;98.20;;;;;;5045833;28;20884;-74
2022/02/15 09:46:03;;;;;;;1.60;1.20;;;8.10;98.20;;;;;;5040893;28;21043;-71
2022/02/15 09:48:32;;;;;;;1.60;1.20;;;8.10;98.20;;;;;;5046028;28;20512;-71
2022/02/15 09:50:59;;;;;;;1.60;1.30;;;8.20;98.20;;;;;;5041511;28;20791;-71
2022/02/15 09:53:26;;;;;;;1.60;1.20;;;8.20;98.20;;;;;;5042817;28;20564;-71
2022/02/15 09:55:53;;;;;;;1.60;1.20;;;8.30;98.20;;;;;;5043011;28;20496;-71
2022/02/15 09:58:20;;;;;;;1.60;1.20;;;8.30;98.20;;;;;;5043314;28;20577;-71
2022/02/15 10:00:48;;;;;;;1.60;1.40;;;8.40;98.20;;;;;;5044016;28;20470;-71
2022/02/15 10:03:15;;;;;;;1.60;1.23;;;8.50;98.20;;;;;;5044572;28;20564;-71
2022/02/15 10:05:48;;;;;;;1.60;1.30;;;8.50;98.20;;;;;;5042364;28;20591;-71
2022/02/15 10:08:15;;;;;;;1.60;1.20;;;8.60;98.20;;;;;;5040203;28;20498;-71
2022/02/15 10:10:42;;;;;;;1.60;1.20;;;8.70;98.20;;;;;;5043116;28;20466;-72
2022/02/15 10:13:14;;;;;;;1.60;1.27;;;8.70;98.20;;;;;;5043427;28;21041;-71
2022/02/15 10:15:42;;;;;;;1.60;1.20;;;8.70;98.20;;;;;;5040973;28;21063;-71
2022/02/15 10:18:11;;;;;;;1.60;1.20;;;8.80;98.20;;;;;;5043890;28;20470;-71
2022/02/15 10:20:42;;;;;;;1.60;1.10;;;8.80;98.20;;;;;;5039404;28;21068;-72
2022/02/15 10:23:22;;;;;;;1.60;1.30;;;8.80;98.20;;;;;;5039647;28;20481;-69
2022/02/15 10:25:51;;;;;;;1.60;1.20;;;8.90;98.20;;;;;;5037838;28;20992;-72
2022/02/15 10:28:19;;;;;;;1.60;1.20;;;8.90;98.20;;;;;;5043342;28;20546;-73
2022/02/15 10:30:47;;;;;;;1.60;1.20;;;8.90;98.20;;;;;;5038408;28;20477;-73
2022/02/15 10:33:15;;;;;;;1.60;1.20;;;8.90;98.20;;;;;;5044121;28;20489;-73
2022/02/15 10:35:56;;;;;;;1.60;1.10;;;8.90;98.20;;;;;;5044383;28;20605;-71
2022/02/15 10:38:28;;;;;;;1.60;1.20;;;8.90;98.20;;;;;;5040144;28;20851;-72
2022/02/15 10:40:57;;;;;;;1.60;1.23;;;8.90;98.20;;;;;;5044377;28;20463;-72
2022/02/15 10:43:23;;;;;;;1.60;1.20;;;8.90;98.20;;;;;;5044628;28;20463;-71
2022/02/15 10:45:50;;;;;;;1.60;1.33;;;8.90;98.20;;;;;;5038043;28;20463;-74
2022/02/15 10:48:28;;;;;;;1.60;1.10;;;9.00;98.20;;;;;;5044937;28;20458;-72
2022/02/15 10:50:56;;;;;;;1.60;1.20;;;9.00;98.20;;;;;;5040091;28;20472;-73
2022/02/15 10:53:24;;;;;;;1.60;1.10;;;9.00;98.20;;;;;;5044381;28;20958;-73
2022/02/15 10:55:53;;;;;;;1.60;1.10;;;9.20;98.20;;;;;;5041189;28;20573;-74
2022/02/15 10:58:20;;;;;;;1.60;1.20;;;9.40;98.20;;;;;;5044222;28;20468;-73
2022/02/15 11:00:50;;;;;;;1.60;1.10;;;9.60;98.20;;;;;;5042185;28;20471;-72
2022/02/15 11:03:21;;;;;;;1.60;1.23;;;9.90;98.20;;;;;;5042736;28;21218;-75
2022/02/15 11:05:49;;;;;;;1.60;1.20;;;10.00;97.80;;;;;;5042027;28;20458;-74
2022/02/15 11:08:19;;;;;;;1.60;1.10;;;10.30;97.00;;;;;;5040824;28;20469;-72
2022/02/15 11:10:51;;;;;;;1.60;1.10;;;10.40;95.50;;;;;;5041805;28;20469;-72
2022/02/15 11:13:20;;;;;;;1.60;1.20;;;10.60;94.60;;;;;;5042939;28;20463;-72
2022/02/15 11:15:51;;;;;;;1.60;1.10;;;10.80;94.90;;;;;;5044739;28;20894;-72
2022/02/15 11:18:29;;;;;;;1.60;1.20;;;10.80;94.00;;;;;;5040590;28;20466;-73
2022/02/15 11:20:56;;;;;;;1.60;1.10;;;10.70;93.90;;;;;;5042688;28;20471;-73
2022/02/15 11:23:24;;;;;;;1.60;1.10;;;10.40;94.60;;;;;;5044073;28;20492;-72
2022/02/15 11:26:03;;;;;;;1.60;1.13;;;10.30;95.30;;;;;;5043515;28;20462;-72
2022/02/15 11:28:32;;;;;;;1.60;1.10;;;10.40;94.80;;;;;;5042516;28;20549;-74
2022/02/15 11:31:01;;;;;;;1.60;1.20;;;10.50;95.40;;;;;;5043951;28;20470;-71
2022/02/15 11:33:29;;;;;;;1.60;1.10;;;10.60;95.10;;;;;;5043541;28;20971;-73
2022/02/15 11:35:58;;;;;;;1.57;1.10;;;10.50;93.50;;;;;;5039311;28;20498;-72
2022/02/15 11:38:27;;;;;;;1.60;1.30;;;10.40;93.50;;;;;;5043102;28;20466;-70
2022/02/15 11:40:58;;;;;;;1.60;1.10;;;10.20;93.80;;;;;;5042313;28;20848;-72
2022/02/15 11:43:26;;;;;;;1.60;1.20;;;10.10;93.90;;;;;;5044664;28;20967;-75
2022/02/15 11:45:56;;;;;;;1.60;1.20;;;9.90;93.90;;;;;;5041744;28;21033;-73
2022/02/15 11:48:34;;;;;;;1.60;1.20;;;9.60;93.00;;;;;;5044957;28;20569;-71
2022/02/15 11:51:01;;;;;;;1.60;1.20;;;9.50;93.00;;;;;;5043052;28;20462;-72
2022/02/15 11:53:29;;;;;;;2.20;2.00;;;9.40;93.10;;;;;;5044633;28;20467;-71
2022/02/15 11:55:57;;;;;;;1.60;1.10;;;9.40;93.90;;;;;;5040743;28;20998;-73
2022/02/15 11:58:24;;;;;;;1.60;1.23;;;9.60;93.30;;;;;;5042691;28;20872;-73
2022/02/15 12:00:56;;;;;;;1.57;1.10;;;9.70;91.90;;;;;;5044224;28;20458;-72
2022/02/15 12:03:23;;;;;;;1.60;1.27;;;9.60;92.10;;;;;;5044285;28;21013;-73
2022/02/15 12:05:50;;;;;;;1.60;1.30;;;9.60;92.00;;;;;;5041496;28;20474;-72
2022/02/15 12:08:23;;;;;;;1.60;1.20;;;9.80;92.10;;;;;;5040816;28;20586;-70
2022/02/15 12:10:51;;;;;;;1.60;1.10;;;10.10;92.10;;;;;;5043213;28;20466;-74
2022/02/15 12:13:20;;;;;;;1.50;1.10;;;10.50;91.30;;;;;;5040475;28;20462;-74
2022/02/15 12:15:48;;;;;;;1.60;1.20;;;10.70;90.40;;;;;;5041575;28;20458;-73
2022/02/15 12:18:28;;;;;;;1.57;1.20;;;10.70;89.00;;;;;;5041951;28;20579;-72
2022/02/15 12:20:56;;;;;;;1.57;1.10;;;10.80;87.90;;;;;;5037734;28;20515;-73
2022/02/15 12:23:24;;;;;;;1.60;1.10;;;10.80;88.40;;;;;;5054674;28;20836;-72
2022/02/15 12:25:51;;;;;;;1.60;1.20;;;10.90;88.00;;;;;;5038846;28;20481;-73
2022/02/15 12:28:22;;;;;;;1.60;1.10;;;10.80;86.80;;;;;;5043538;28;20462;-73
2022/02/15 12:30:49;;;;;;;1.60;1.10;;;10.90;87.40;;;;;;5042025;28;20809;-71
2022/02/15 12:33:18;;;;;;;1.60;1.10;;;11.00;87.10;;;;;;5041896;28;20899;-73
2022/02/15 12:35:45;;;;;;;1.60;1.10;;;11.20;87.80;;;;;;5041401;28;20468;-75
2022/02/15 12:38:12;;;;;;;1.60;1.13;;;11.20;87.40;;;;;;5042479;28;20947;-72
2022/02/15 12:40:41;;;;;;;1.60;1.20;;;11.10;86.70;;;;;;5039133;28;20931;-73
2022/02/15 12:43:08;;;;;;;1.60;1.10;;;11.00;87.60;;;;;;5040422;28;20482;-74
2022/02/15 12:45:42;;;;;;;1.57;1.03;;;11.00;87.90;;;;;;5034111;28;20474;-75
2022/02/15 12:48:11;;;;;;;1.60;1.10;;;11.10;88.00;;;;;;5039257;28;20477;-72
2022/02/15 12:50:40;;;;;;;1.60;1.10;;;11.30;88.00;;;;;;5037202;28;21023;-73
2022/02/15 12:53:07;;;;;;;1.60;1.10;;;11.60;87.90;;;;;;5039605;28;20554;-73
2022/02/15 12:55:33;;;;;;;1.60;1.10;;;11.60;85.20;;;;;;5034516;28;20557;-71
2022/02/15 12:58:02;;;;;;;1.60;1.10;;;11.70;84.70;;;;;;5040176;28;20490;-73
2022/02/15 13:00:29;;;;;;;1.60;1.20;;;11.70;84.30;;;;;;5037656;28;20952;-74
2022/02/15 13:02:56;;;;;;;1.60;1.10;;;11.80;84.30;;;;;;5040130;28;20936;-71